createdAt,value
2019-01-13T00:41:57.121Z,-2.08
2019-01-13T00:45:04.268Z,-1.96
2019-01-13T00:48:12.680Z,-1.81
2019-01-13T00:51:27.991Z,-1.76
2019-01-13T00:54:23.371Z,-1.68
2019-01-13T03:41:35.978Z,-2.34
2019-01-13T04:25:32.052Z,-1.90
2019-01-13T04:44:17.632Z,-1.76
2019-01-13T05:00:25.764Z,-1.85
2019-01-13T05:20:43.557Z,-2.07
2019-01-13T07:07:17.528Z,0.99
2019-01-13T07:10:23.431Z,1.38
2019-01-13T07:13:14.915Z,1.98
2019-01-13T07:16:19.345Z,2.92
2019-01-13T07:19:08.585Z,3.31
2019-01-13T07:22:14.884Z,3.52
2019-01-13T07:25:04.003Z,3.79
2019-01-13T07:28:08.680Z,4.01
2019-01-13T07:30:56.394Z,4.36
2019-01-13T07:34:04.780Z,4.66
2019-01-13T07:36:52.632Z,4.74
2019-01-13T07:39:59.018Z,5.10
2019-01-13T07:42:47.139Z,5.27
2019-01-13T07:45:55.017Z,5.87
2019-01-13T07:51:50.852Z,6.22
2019-01-13T07:54:55.600Z,6.85
2019-01-13T07:57:43.831Z,6.86
2019-01-13T08:00:48.450Z,7.02
2019-01-13T08:03:36.444Z,7.81
2019-01-13T08:06:44.112Z,8.39
2019-01-13T08:09:32.020Z,8.11
2019-01-13T08:12:39.993Z,7.84
2019-01-13T08:15:27.906Z,8.33
2019-01-13T08:18:33.892Z,8.87
2019-01-13T08:21:22.976Z,9.68
2019-01-13T08:24:29.098Z,9.81
2019-01-13T08:27:23.358Z,9.48
2019-01-13T08:30:30.580Z,9.17
2019-01-13T08:33:20.077Z,9.41
2019-01-13T08:36:25.787Z,9.69
2019-01-13T08:39:14.061Z,9.84
2019-01-13T08:42:19.321Z,9.24
2019-01-13T08:45:10.514Z,10.29
2019-01-13T08:48:15.950Z,10.32
2019-01-13T08:51:05.106Z,10.02
2019-01-13T08:54:09.522Z,11.16
2019-01-13T08:56:57.627Z,11.83
2019-01-13T09:00:02.334Z,11.99
2019-01-13T09:02:50.597Z,12.63
2019-01-13T09:05:55.035Z,13.02
2019-01-13T09:08:44.536Z,12.28
2019-01-13T09:11:49.620Z,13.01
2019-01-13T09:14:38.891Z,13.46
2019-01-13T09:17:44.031Z,13.45
2019-01-13T09:20:51.860Z,14.33
2019-01-13T09:23:40.232Z,14.98
2019-01-13T09:26:50.777Z,16.11
2019-01-13T09:29:34.543Z,16.81
2019-01-13T09:32:39.711Z,17.47
2019-01-13T09:35:28.151Z,18.17
2019-01-13T09:38:32.954Z,18.46
2019-01-13T09:41:20.691Z,18.15
2019-01-13T09:44:28.327Z,16.22
2019-01-13T09:47:16.039Z,17.29
2019-01-13T09:50:20.384Z,18.34
2019-01-13T09:53:11.227Z,18.34
2019-01-13T09:56:15.901Z,18.38
2019-01-13T09:59:03.937Z,17.80
2019-01-13T10:02:08.520Z,18.52
2019-01-13T10:04:56.638Z,18.05
2019-01-13T10:08:01.468Z,18.87
2019-01-13T10:10:49.337Z,20.17
2019-01-13T10:13:54.146Z,20.12
2019-01-13T10:16:42.179Z,20.36
2019-01-13T10:19:46.830Z,18.85
2019-01-13T10:22:34.915Z,16.77
2019-01-13T10:25:39.688Z,16.26
2019-01-13T10:28:27.532Z,15.77
2019-01-13T10:31:32.198Z,15.59
2019-01-13T10:34:37.073Z,17.63
2019-01-13T10:37:24.936Z,18.28
2019-01-13T10:40:29.798Z,18.92
2019-01-13T10:43:17.860Z,17.56
2019-01-13T10:46:22.627Z,19.54
2019-01-13T10:49:10.447Z,19.54
2019-01-13T10:52:15.451Z,19.66
2019-01-13T10:55:03.555Z,19.29
2019-01-13T10:58:08.270Z,18.85
2019-01-13T11:00:56.031Z,16.87
2019-01-13T11:04:00.692Z,16.87
2019-01-13T11:06:48.717Z,16.86
2019-01-13T11:09:53.392Z,17.18
2019-01-13T11:12:41.427Z,17.00
2019-01-13T11:15:45.918Z,17.09
2019-01-13T11:18:33.783Z,16.90
2019-01-13T11:21:38.495Z,18.03
2019-01-13T11:24:26.283Z,17.61
2019-01-13T11:27:48.759Z,18.03
2019-01-13T11:30:36.946Z,18.03
2019-01-13T11:33:41.739Z,19.00
2019-01-13T11:36:29.955Z,19.39
2019-01-13T11:39:34.707Z,19.39
2019-01-13T11:42:22.690Z,19.21
2019-01-13T11:45:27.632Z,17.65
2019-01-13T11:48:15.515Z,17.04
2019-01-13T11:51:20.292Z,17.30
2019-01-13T11:54:08.138Z,18.28
2019-01-13T11:57:12.567Z,18.05
2019-01-13T12:00:17.480Z,19.34
2019-01-13T12:03:06.898Z,20.65
2019-01-13T12:06:11.806Z,21.65
2019-01-13T12:09:00.039Z,21.74
2019-01-13T12:12:07.230Z,21.58
2019-01-13T12:14:54.914Z,21.86
2019-01-13T12:17:59.322Z,22.53
2019-01-13T12:20:47.435Z,22.57
2019-01-13T12:23:52.108Z,23.52
2019-01-13T12:26:40.213Z,23.14
2019-01-13T12:29:44.913Z,24.33
2019-01-13T12:32:32.941Z,24.86
2019-01-13T12:35:37.800Z,25.82
2019-01-13T12:38:25.539Z,24.88
2019-01-13T12:41:30.263Z,23.82
2019-01-13T12:44:17.976Z,23.30
2019-01-13T12:50:23.663Z,21.14
2019-01-13T12:53:28.207Z,20.97
2019-01-13T12:56:16.322Z,21.55
2019-01-13T12:59:21.313Z,22.17
2019-01-13T13:02:09.169Z,20.64
2019-01-13T13:05:16.802Z,21.07
2019-01-13T13:08:04.999Z,21.54
2019-01-13T13:11:10.018Z,21.10
2019-01-13T13:13:58.078Z,20.54
2019-01-13T13:17:02.727Z,19.80
2019-01-13T13:19:50.902Z,18.95
2019-01-13T13:22:55.819Z,18.07
2019-01-13T13:25:43.604Z,17.53
2019-01-13T13:28:48.445Z,17.29
2019-01-13T13:31:36.311Z,17.16
2019-01-13T13:34:41.249Z,17.06
2019-01-13T13:37:29.344Z,16.51
2019-01-13T13:40:34.116Z,16.51
2019-01-13T13:43:21.913Z,16.58
2019-01-13T13:46:26.440Z,15.84
2019-01-13T13:49:17.354Z,16.20
2019-01-13T13:52:22.029Z,15.94
2019-01-13T13:55:09.987Z,15.81
2019-01-13T13:58:14.466Z,15.91
2019-01-13T14:01:02.410Z,16.55
2019-01-13T14:04:07.345Z,16.43
2019-01-13T14:06:55.617Z,17.42
2019-01-13T14:10:00.103Z,15.27
2019-01-13T14:12:52.130Z,12.50
2019-01-13T14:15:56.814Z,10.46
2019-01-13T14:18:47.787Z,9.34
2019-01-13T14:21:55.818Z,8.35
2019-01-13T14:24:44.205Z,7.57
2019-01-13T14:27:49.193Z,7.09
2019-01-13T14:30:54.255Z,6.71
2019-01-13T14:33:41.926Z,6.35
2019-01-13T14:36:46.588Z,6.20
2019-01-13T14:39:34.737Z,5.93
2019-01-13T14:42:40.881Z,5.79
2019-01-13T14:45:30.180Z,5.67
2019-01-13T14:48:36.777Z,5.66
2019-01-13T14:51:24.706Z,5.45
2019-01-13T14:54:29.205Z,5.07
2019-01-13T14:57:17.038Z,4.97
2019-01-13T15:00:23.401Z,4.92
2019-01-13T15:03:11.295Z,4.90
2019-01-13T15:06:16.187Z,4.77
2019-01-13T15:09:07.083Z,4.71
2019-01-13T15:12:11.627Z,4.55
2019-01-13T15:14:59.458Z,4.32
2019-01-13T15:18:04.446Z,3.81
2019-01-13T15:20:52.755Z,3.53
2019-01-13T15:23:57.276Z,3.35
2019-01-13T15:26:47.594Z,3.27
2019-01-13T15:29:52.236Z,3.05
2019-01-13T15:35:52.582Z,3.04
2019-01-13T15:38:57.001Z,3.18
2019-01-13T15:41:45.997Z,3.21
2019-01-13T15:44:50.689Z,3.33
2019-01-13T15:47:41.966Z,3.18
2019-01-13T15:50:46.824Z,3.38
2019-01-13T15:53:37.126Z,3.42
2019-01-13T15:56:41.941Z,3.65
2019-01-13T15:59:30.042Z,3.73
2019-01-13T16:02:34.450Z,3.64
2019-01-13T16:05:22.291Z,3.71
2019-01-13T16:08:27.248Z,3.70
2019-01-13T16:11:16.644Z,3.70
2019-01-13T16:14:21.392Z,3.81
2019-01-13T16:17:09.569Z,3.87
2019-01-13T16:20:14.552Z,3.86
2019-01-13T16:26:04.920Z,3.91
2019-01-13T16:29:09.826Z,3.88
2019-01-13T16:31:58.104Z,3.84
2019-01-13T16:35:03.909Z,3.86
2019-01-13T16:38:10.221Z,3.83
2019-01-13T16:40:59.455Z,3.79
2019-01-13T16:44:04.033Z,3.73
2019-01-13T16:46:52.061Z,3.72
2019-01-13T16:49:58.157Z,3.59
2019-01-13T16:52:46.029Z,3.43
2019-01-13T16:55:50.636Z,3.23
2019-01-13T16:58:39.602Z,3.30
2019-01-13T17:01:44.304Z,3.30
2019-01-13T17:04:32.216Z,3.33
2019-01-13T17:07:37.820Z,3.30
2019-01-13T17:10:26.121Z,3.27
2019-01-13T17:13:37.012Z,3.30
2019-01-13T17:16:25.910Z,3.30
2019-01-13T17:19:31.050Z,3.22
2019-01-13T17:22:22.260Z,3.21
2019-01-13T17:25:28.332Z,3.16
2019-01-13T17:28:16.541Z,3.02
2019-01-13T17:31:21.827Z,3.00
2019-01-13T17:37:15.151Z,3.03
2019-01-13T17:40:21.244Z,3.00
2019-01-13T17:43:10.610Z,3.03
2019-01-13T17:46:18.210Z,3.01
2019-01-13T17:49:06.461Z,3.00
2019-01-13T17:52:12.754Z,3.00
2019-01-13T17:55:01.071Z,2.98
2019-01-13T17:58:11.698Z,2.93
2019-01-13T18:01:02.423Z,2.91
2019-01-13T18:04:06.809Z,2.89
2019-01-13T18:06:55.930Z,2.95
2019-01-13T18:10:00.902Z,2.99
2019-01-13T18:13:05.762Z,2.90
2019-01-13T18:15:53.983Z,2.86
2019-01-13T18:18:58.841Z,2.87
2019-01-13T18:21:48.139Z,2.69
2019-01-13T18:25:01.654Z,2.33
2019-01-13T18:28:09.354Z,2.16
2019-01-13T18:31:03.719Z,1.86
2019-01-13T18:34:09.668Z,1.51
2019-01-13T18:37:10.692Z,1.68
2019-01-13T18:40:15.556Z,1.81
2019-01-13T18:43:06.947Z,1.59
2019-01-13T18:46:11.662Z,1.70
2019-01-13T18:49:19.491Z,1.80
2019-01-13T18:52:07.664Z,1.81
2019-01-13T18:55:12.516Z,1.80
2019-01-13T18:58:04.721Z,1.79
2019-01-13T19:01:09.792Z,1.91
2019-01-13T19:03:57.998Z,1.86
2019-01-13T19:07:06.599Z,1.97
2019-01-13T19:09:54.598Z,2.19
2019-01-13T19:13:01.114Z,2.59
2019-01-13T19:15:49.386Z,2.61
2019-01-13T19:19:00.330Z,2.57
2019-01-13T19:21:49.701Z,2.57
2019-01-13T19:24:57.692Z,2.56
2019-01-13T19:27:46.008Z,2.56
2019-01-13T19:30:50.728Z,2.60
2019-01-13T19:34:01.433Z,2.47
2019-01-13T19:36:49.589Z,2.35
2019-01-13T19:39:54.311Z,2.30
2019-01-13T19:42:42.466Z,2.31
2019-01-13T19:45:50.202Z,2.27
2019-01-13T19:48:55.757Z,2.31
2019-01-13T19:52:00.568Z,2.26
2019-01-13T19:54:51.617Z,2.24
2019-01-13T19:58:03.266Z,2.19
2019-01-13T20:00:51.307Z,2.16
2019-01-13T20:03:59.315Z,2.21
2019-01-13T20:06:47.329Z,2.23
2019-01-13T20:09:52.063Z,2.14
2019-01-13T20:12:57.972Z,2.30
2019-01-13T20:15:47.290Z,2.21
2019-01-13T20:18:56.375Z,2.28
2019-01-13T20:21:44.301Z,2.56
2019-01-13T20:24:49.179Z,2.51
2019-01-13T20:27:37.146Z,2.59
2019-01-13T20:30:41.928Z,2.62
2019-01-13T20:33:48.121Z,2.67
2019-01-13T20:36:52.985Z,2.74
2019-01-13T20:39:43.181Z,2.77
2019-01-13T20:42:48.450Z,2.78
2019-01-13T20:45:37.958Z,2.73
2019-01-13T20:48:42.825Z,2.72
2019-01-13T20:51:30.572Z,2.83
2019-01-13T20:54:36.609Z,2.68
2019-01-13T20:57:24.567Z,2.42
2019-01-13T21:00:36.533Z,2.77
2019-01-13T21:03:24.523Z,2.47
2019-01-13T21:06:33.574Z,2.53
2019-01-13T21:09:21.400Z,2.58
2019-01-13T21:12:32.695Z,2.49
2019-01-13T21:15:20.701Z,2.64
2019-01-13T21:18:26.583Z,2.78
2019-01-13T21:21:14.800Z,2.98
2019-01-13T21:24:20.788Z,2.99
2019-01-13T21:27:08.636Z,2.92
2019-01-13T21:30:19.472Z,2.86
2019-01-13T21:33:07.434Z,2.73
2019-01-13T21:36:12.477Z,2.78
2019-01-13T21:39:00.997Z,2.91
2019-01-13T21:42:05.815Z,2.90
2019-01-13T21:44:53.589Z,2.65
2019-01-13T21:50:59.640Z,1.97
2019-01-13T21:54:10.930Z,1.70
2019-01-13T21:57:00.852Z,1.48
2019-01-13T22:00:09.908Z,1.00
2019-01-13T22:02:58.242Z,0.87
2019-01-13T22:06:03.567Z,0.24
2019-01-13T22:08:56.075Z,0.06
2019-01-13T22:12:00.723Z,-0.18
2019-01-13T22:14:48.852Z,-0.21
2019-01-13T22:17:56.734Z,-0.04
2019-01-13T22:20:44.678Z,-0.08
2019-01-13T22:23:50.892Z,-0.63
2019-01-13T22:26:38.993Z,-0.42
2019-01-13T22:29:43.694Z,-0.74
2019-01-13T22:32:34.693Z,-1.02
2019-01-13T22:35:58.185Z,-0.86
2019-01-13T22:38:28.593Z,-0.65
2019-01-13T22:41:05.710Z,-0.74
2019-01-13T22:43:41.817Z,-1.03
2019-01-13T22:46:18.817Z,-1.31
2019-01-13T22:48:49.205Z,-1.54
2019-01-13T22:51:26.811Z,-1.42
2019-01-13T22:53:59.744Z,-1.45
2019-01-13T22:56:35.548Z,-1.41
2019-01-13T22:59:22.177Z,-1.73
2019-01-13T23:02:18.142Z,-2.01
2019-01-13T23:04:48.523Z,-2.11
2019-01-13T23:07:25.153Z,-2.13
2019-01-13T23:09:55.552Z,-2.16
2019-01-13T23:15:29.521Z,-2.45
2019-01-13T23:18:06.345Z,-2.70
